Time;durP1;ratioP1;P1;durP2;ratioP2;P2;SDS_P1;SDS_P2;PMS_P1;PMS_P2;Temp;Humidity;BMP_temperature;BMP_pressure;BME280_temperature;BME280_humidity;BME280_pressure;Samples;Min_cycle;Max_cycle;Signal;HPM_P1;HPM_P2
2022/05/06 00:00:10;;;;;;;22.57;21.07;;;;;;;;;;5054527;28;20790;-93
2022/05/06 00:02:38;;;;;;;22.33;21.20;;;;;;;;;;5053975;28;20411;-93
2022/05/06 00:05:05;;;;;;;22.10;20.80;;;;;;;;;;5054458;28;20986;-93
2022/05/06 00:07:34;;;;;;;22.70;21.40;;;;;;;;;;5053411;28;20649;-93
2022/05/06 00:10:03;;;;;;;21.57;20.47;;;;;;;;;;5054335;28;21008;-93
2022/05/06 00:12:31;;;;;;;22.07;20.73;;;;;;;;;;5069364;28;20438;-93
2022/05/06 00:14:58;;;;;;;21.00;19.90;;;;;;;;;;5054338;28;20426;-93
2022/05/06 00:17:25;;;;;;;22.13;20.90;;;;;;;;;;5053972;28;20478;-93
2022/05/06 00:19:53;;;;;;;22.30;21.17;;;;;;;;;;5069527;28;20984;-94
2022/05/06 00:22:21;;;;;;;21.37;20.27;;;;;;;;;;5053487;28;20442;-93
2022/05/06 00:24:51;;;;;;;22.37;21.10;;;;;;;;;;5053723;28;20454;-93
2022/05/06 00:27:19;;;;;;;21.40;20.30;;;;;;;;;;5053736;28;20446;-93
2022/05/06 00:29:46;;;;;;;21.87;20.70;;;;;;;;;;5053734;28;20460;-93
2022/05/06 00:32:14;;;;;;;21.77;20.67;;;;;;;;;;5053883;28;20446;-93
2022/05/06 00:34:41;;;;;;;21.30;20.20;;;;;;;;;;5053739;28;20447;-92
2022/05/06 00:37:09;;;;;;;20.97;19.87;;;;;;;;;;5053725;28;20481;-91
2022/05/06 00:39:36;;;;;;;21.60;20.50;;;;;;;;;;5052917;28;20418;-91
2022/05/06 00:42:05;;;;;;;20.43;19.40;;;;;;;;;;5053471;28;20418;-91
2022/05/06 00:44:33;;;;;;;21.23;20.13;;;;;;;;;;5053363;28;20912;-91
2022/05/06 00:47:00;;;;;;;21.00;19.90;;;;;;;;;;5068924;28;20452;-91
2022/05/06 00:49:27;;;;;;;21.23;20.13;;;;;;;;;;5053485;28;20839;-91
2022/05/06 00:51:56;;;;;;;21.50;20.40;;;;;;;;;;5053423;28;20427;-91
2022/05/06 00:54:24;;;;;;;22.37;20.80;;;;;;;;;;5053637;28;20829;-91
2022/05/06 00:56:52;;;;;;;21.23;20.00;;;;;;;;;;5052180;28;20539;-91
2022/05/06 00:59:21;;;;;;;21.23;19.93;;;;;;;;;;5053377;28;20447;-89
2022/05/06 01:01:48;;;;;;;21.97;20.77;;;;;;;;;;5053683;28;20489;-91
2022/05/06 01:04:17;;;;;;;23.27;21.60;;;;;;;;;;5068656;28;20474;-91
2022/05/06 01:06:45;;;;;;;21.53;20.40;;;;;;;;;;5053503;28;20455;-92
2022/05/06 01:09:15;;;;;;;20.90;19.70;;;;;;;;;;5054014;28;20489;-92
2022/05/06 01:11:42;;;;;;;20.70;19.70;;;;;;;;;;5053506;28;20872;-92
2022/05/06 01:14:09;;;;;;;22.10;20.90;;;;;;;;;;5053554;28;20475;-92
2022/05/06 01:16:39;;;;;;;22.17;20.97;;;;;;;;;;5052803;28;20762;-92
2022/05/06 01:19:06;;;;;;;22.13;20.93;;;;;;;;;;5056255;28;20490;-92
2022/05/06 01:21:36;;;;;;;22.33;21.13;;;;;;;;;;5057508;28;20463;-92
2022/05/06 01:24:06;;;;;;;21.40;20.20;;;;;;;;;;5057579;28;20459;-93
2022/05/06 01:26:53;;;;;;;21.50;20.40;;;;;;;;;;5057080;28;20546;-92
2022/05/06 01:29:22;;;;;;;21.87;20.57;;;;;;;;;;5056630;28;20641;-93
2022/05/06 01:31:50;;;;;;;21.97;20.67;;;;;;;;;;5057614;28;20431;-93
2022/05/06 01:34:18;;;;;;;21.70;20.60;;;;;;;;;;5057045;28;20447;-92
2022/05/06 01:36:47;;;;;;;21.70;20.57;;;;;;;;;;5056878;28;20891;-92
2022/05/06 01:39:19;;;;;;;21.97;20.67;;;;;;;;;;5057251;28;20959;-93
2022/05/06 01:41:49;;;;;;;21.90;20.70;;;;;;;;;;5057242;28;20530;-93
2022/05/06 01:44:18;;;;;;;21.90;20.70;;;;;;;;;;5057693;28;20832;-93
2022/05/06 01:46:45;;;;;;;21.87;20.47;;;;;;;;;;5057046;28;20224;-92
2022/05/06 01:49:14;;;;;;;22.40;21.10;;;;;;;;;;5056985;28;20439;-93
2022/05/06 01:51:44;;;;;;;22.00;20.80;;;;;;;;;;5057132;28;20917;-93
2022/05/06 01:54:12;;;;;;;21.73;20.53;;;;;;;;;;5057211;28;20438;-92
2022/05/06 01:56:42;;;;;;;22.10;20.80;;;;;;;;;;5071832;28;20524;-93
2022/05/06 01:59:09;;;;;;;23.07;21.77;;;;;;;;;;5057234;28;20518;-93
2022/05/06 02:01:37;;;;;;;21.57;20.30;;;;;;;;;;5056870;28;20431;-93
2022/05/06 02:06:49;;;;;;;22.90;21.47;;;;;;;;;;5056634;28;20417;-93
2022/05/06 02:09:17;;;;;;;21.17;20.07;;;;;;;;;;5056241;28;20421;-92
2022/05/06 02:11:46;;;;;;;21.30;20.20;;;;;;;;;;5056325;28;20434;-92
2022/05/06 02:14:14;;;;;;;22.20;21.10;;;;;;;;;;5056008;28;21029;-92
2022/05/06 02:16:41;;;;;;;22.77;21.47;;;;;;;;;;5056621;28;20435;-93
2022/05/06 02:19:09;;;;;;;22.80;21.50;;;;;;;;;;5056087;28;20457;-93
2022/05/06 02:21:36;;;;;;;22.57;21.37;;;;;;;;;;5056074;28;20444;-93
2022/05/06 02:24:04;;;;;;;22.30;21.10;;;;;;;;;;5055875;28;20440;-93
2022/05/06 02:26:31;;;;;;;22.43;21.23;;;;;;;;;;5055812;28;20414;-92
2022/05/06 02:29:00;;;;;;;21.13;20.03;;;;;;;;;;5056057;28;20805;-92
2022/05/06 02:34:16;;;;;;;23.23;21.50;;;;;;;;;;5055877;28;20418;-92
2022/05/06 02:36:44;;;;;;;22.00;20.83;;;;;;;;;;5056184;28;20462;-93
2022/05/06 02:39:11;;;;;;;22.27;20.90;;;;;;;;;;5055735;28;20456;-93
2022/05/06 02:41:38;;;;;;;21.10;20.00;;;;;;;;;;5055655;28;20432;-93
2022/05/06 02:44:08;;;;;;;21.20;20.10;;;;;;;;;;5055685;28;20831;-93
2022/05/06 02:46:36;;;;;;;21.30;20.10;;;;;;;;;;5055516;28;20418;-93
2022/05/06 02:49:04;;;;;;;21.50;20.33;;;;;;;;;;5055596;28;20439;-93
2022/05/06 02:51:32;;;;;;;21.43;20.33;;;;;;;;;;5055519;28;20483;-93
2022/05/06 02:53:59;;;;;;;21.90;20.70;;;;;;;;;;5055629;28;20426;-93
2022/05/06 02:56:27;;;;;;;21.00;20.00;;;;;;;;;;5055461;28;20457;-93
2022/05/06 02:58:54;;;;;;;20.57;19.47;;;;;;;;;;5055382;28;20810;-93
2022/05/06 03:01:24;;;;;;;21.37;20.27;;;;;;;;;;5055527;28;20413;-93
2022/05/06 03:03:52;;;;;;;21.00;19.90;;;;;;;;;;5055244;28;20438;-92
2022/05/06 03:06:20;;;;;;;20.17;19.17;;;;;;;;;;5054880;28;20823;-93
2022/05/06 03:08:47;;;;;;;20.43;19.43;;;;;;;;;;5054948;28;20493;-93
2022/05/06 03:11:15;;;;;;;20.83;19.63;;;;;;;;;;5054983;28;20428;-92
2022/05/06 03:13:42;;;;;;;21.52;20.13;;;;;;;;;;5054779;28;20457;-93
2022/05/06 03:16:09;;;;;;;21.10;19.90;;;;;;;;;;5054613;28;20670;-93
2022/05/06 03:18:38;;;;;;;21.33;20.13;;;;;;;;;;5054445;28;20454;-93
2022/05/06 03:21:06;;;;;;;22.13;20.90;;;;;;;;;;5054988;28;20413;-93
2022/05/06 03:23:34;;;;;;;21.47;20.37;;;;;;;;;;5054907;28;20420;-93
2022/05/06 03:26:01;;;;;;;22.70;21.47;;;;;;;;;;5070632;28;20450;-92
2022/05/06 03:28:30;;;;;;;21.23;20.13;;;;;;;;;;5054796;28;20409;-93
2022/05/06 03:30:57;;;;;;;22.23;20.83;;;;;;;;;;5054304;28;20523;-93
2022/05/06 03:33:28;;;;;;;21.03;19.93;;;;;;;;;;5069888;28;20491;-92
2022/05/06 03:35:57;;;;;;;21.80;20.60;;;;;;;;;;5054589;28;20469;-93
2022/05/06 03:38:24;;;;;;;21.10;19.80;;;;;;;;;;5054322;28;20495;-92
2022/05/06 03:40:52;;;;;;;22.23;20.93;;;;;;;;;;5037304;28;20422;-92
2022/05/06 03:43:20;;;;;;;20.90;19.80;;;;;;;;;;5054649;28;20764;-92
2022/05/06 03:45:47;;;;;;;21.13;19.93;;;;;;;;;;5054704;28;20413;-93
2022/05/06 03:48:14;;;;;;;21.37;20.17;;;;;;;;;;5054772;28;20433;-92
2022/05/06 03:53:28;;;;;;;21.17;19.98;;;;;;;;;;5054368;28;20400;-92
2022/05/06 03:55:56;;;;;;;21.80;20.60;;;;;;;;;;5054847;28;20271;-93
2022/05/06 03:58:23;;;;;;;21.20;20.00;;;;;;;;;;5054559;28;20508;-93
2022/05/06 04:00:50;;;;;;;21.20;20.10;;;;;;;;;;5053418;28;20467;-93
2022/05/06 04:03:18;;;;;;;21.50;20.40;;;;;;;;;;5053824;28;20451;-93
2022/05/06 04:05:46;;;;;;;21.73;20.60;;;;;;;;;;5054113;28;20514;-93
2022/05/06 04:08:13;;;;;;;22.40;21.10;;;;;;;;;;5069180;28;20864;-93
2022/05/06 04:10:42;;;;;;;21.60;20.40;;;;;;;;;;5053700;28;20405;-92
2022/05/06 04:13:09;;;;;;;22.27;20.47;;;;;;;;;;5053878;28;20460;-93
2022/05/06 04:15:38;;;;;;;21.37;20.13;;;;;;;;;;5053695;28;20414;-93
2022/05/06 04:18:06;;;;;;;22.20;20.90;;;;;;;;;;5053393;28;20481;-93
2022/05/06 04:23:30;;;;;;;21.50;20.20;;;;;;;;;;5053677;28;20430;-93
2022/05/06 04:25:59;;;;;;;22.57;21.17;;;;;;;;;;5053783;28;20197;-94
2022/05/06 04:28:27;;;;;;;21.97;20.63;;;;;;;;;;5053487;28;20478;-93
2022/05/06 04:30:55;;;;;;;21.93;20.63;;;;;;;;;;5053704;28;20472;-94
2022/05/06 04:33:24;;;;;;;21.93;20.73;;;;;;;;;;5053429;28;20434;-93
2022/05/06 04:35:53;;;;;;;21.57;20.27;;;;;;;;;;5053646;28;20489;-93
2022/05/06 04:38:20;;;;;;;22.87;21.57;;;;;;;;;;5053561;28;20468;-92
2022/05/06 04:40:48;;;;;;;21.60;20.40;;;;;;;;;;5069232;28;20460;-93
2022/05/06 04:43:20;;;;;;;23.67;21.87;;;;;;;;;;5053442;28;20730;-93
2022/05/06 04:45:48;;;;;;;23.23;21.73;;;;;;;;;;5053682;28;20466;-92
2022/05/06 04:48:15;;;;;;;21.40;20.30;;;;;;;;;;5053281;28;20447;-89
2022/05/06 04:50:43;;;;;;;22.60;21.40;;;;;;;;;;5053524;28;20439;-88
2022/05/06 04:53:11;;;;;;;22.43;21.13;;;;;;;;;;5054227;28;20413;-88
2022/05/06 04:55:39;;;;;;;22.67;21.47;;;;;;;;;;5057586;28;20409;-87
2022/05/06 04:58:08;;;;;;;23.13;21.73;;;;;;;;;;5056885;28;20468;-88
2022/05/06 05:00:37;;;;;;;23.47;21.97;;;;;;;;;;5057429;28;20406;-87
2022/05/06 05:03:05;;;;;;;23.07;21.67;;;;;;;;;;5056929;28;20481;-88
2022/05/06 05:05:33;;;;;;;21.50;20.30;;;;;;;;;;5057044;28;20497;-88
2022/05/06 05:08:00;;;;;;;23.47;22.00;;;;;;;;;;5057052;28;20455;-88
2022/05/06 05:10:28;;;;;;;22.00;20.70;;;;;;;;;;5057141;28;20527;-89
2022/05/06 05:12:56;;;;;;;22.63;21.13;;;;;;;;;;5057261;28;20479;-87
2022/05/06 05:15:23;;;;;;;21.90;20.70;;;;;;;;;;5056638;28;20451;-89
2022/05/06 05:17:52;;;;;;;22.50;21.10;;;;;;;;;;5056930;28;20485;-89
2022/05/06 05:20:20;;;;;;;22.97;21.47;;;;;;;;;;5057742;28;20874;-89
2022/05/06 05:22:47;;;;;;;22.70;21.40;;;;;;;;;;5055802;28;20443;-89
2022/05/06 05:25:15;;;;;;;22.47;21.07;;;;;;;;;;5056766;28;20398;-89
2022/05/06 05:27:42;;;;;;;22.40;21.20;;;;;;;;;;5056906;28;20435;-89
2022/05/06 05:30:11;;;;;;;22.53;21.13;;;;;;;;;;5072134;28;20459;-88
2022/05/06 05:32:40;;;;;;;23.17;21.67;;;;;;;;;;5056867;28;20441;-89
2022/05/06 05:35:09;;;;;;;23.23;21.83;;;;;;;;;;5056636;28;20463;-88
2022/05/06 05:37:36;;;;;;;21.87;20.67;;;;;;;;;;5056569;28;20430;-89
2022/05/06 05:40:04;;;;;;;22.27;21.03;;;;;;;;;;5056157;28;20560;-89
2022/05/06 05:42:31;;;;;;;23.13;21.77;;;;;;;;;;5056472;28;20455;-89
2022/05/06 05:50:30;;;;;;;23.57;21.67;;;;;;;;;;5056377;28;20809;-90
2022/05/06 05:52:58;;;;;;;21.97;20.40;;;;;;;;;;5056451;28;20422;-89
2022/05/06 05:55:25;;;;;;;22.37;21.17;;;;;;;;;;5072181;28;20475;-89
2022/05/06 05:57:52;;;;;;;23.43;22.07;;;;;;;;;;5056026;28;20991;-93
2022/05/06 06:00:20;;;;;;;23.60;22.10;;;;;;;;;;5056209;28;20482;-92
2022/05/06 06:02:47;;;;;;;23.60;22.10;;;;;;;;;;5056463;28;20442;-90
2022/05/06 06:05:15;;;;;;;23.37;21.90;;;;;;;;;;5054773;28;20409;-91
2022/05/06 06:07:44;;;;;;;24.40;22.70;;;;;;;;;;5056053;28;20454;-91
2022/05/06 06:10:11;;;;;;;25.37;23.47;;;;;;;;;;5071820;28;20819;-92
2022/05/06 06:12:39;;;;;;;24.87;23.37;;;;;;;;;;5055197;28;20459;-90
2022/05/06 06:15:07;;;;;;;24.00;22.37;;;;;;;;;;5071242;28;20452;-91
2022/05/06 06:17:35;;;;;;;25.93;23.97;;;;;;;;;;5056075;28;20435;-91
2022/05/06 06:20:05;;;;;;;24.80;23.20;;;;;;;;;;5055445;28;20491;-92
2022/05/06 06:22:32;;;;;;;23.33;21.90;;;;;;;;;;5055763;28;20418;-90
2022/05/06 06:25:01;;;;;;;24.53;22.90;;;;;;;;;;5056145;28;20406;-90
2022/05/06 06:27:29;;;;;;;24.93;23.27;;;;;;;;;;5055405;28;20532;-88
2022/05/06 06:29:56;;;;;;;24.90;23.20;;;;;;;;;;5055476;28;20439;-91
2022/05/06 06:32:23;;;;;;;24.00;22.60;;;;;;;;;;5055993;28;20456;-95
2022/05/06 06:34:52;;;;;;;25.17;23.63;;;;;;;;;;5055455;28;20451;-90
2022/05/06 06:37:21;;;;;;;23.80;22.27;;;;;;;;;;5055573;28;20426;-90
2022/05/06 06:39:48;;;;;;;24.50;23.00;;;;;;;;;;5055628;28;20454;-90
2022/05/06 06:42:17;;;;;;;24.73;23.20;;;;;;;;;;5055507;28;20431;-90
2022/05/06 06:44:44;;;;;;;23.37;22.07;;;;;;;;;;5055744;28;20433;-89
2022/05/06 06:47:13;;;;;;;25.10;23.60;;;;;;;;;;5055165;28;20417;-90
2022/05/06 06:49:41;;;;;;;24.73;23.27;;;;;;;;;;5055839;28;20443;-90
2022/05/06 06:52:09;;;;;;;24.10;22.77;;;;;;;;;;5055205;28;20439;-90
2022/05/06 06:54:36;;;;;;;24.10;22.70;;;;;;;;;;5055985;28;20458;-90
2022/05/06 06:57:04;;;;;;;25.70;24.00;;;;;;;;;;5055245;28;20486;-89
2022/05/06 06:59:33;;;;;;;26.10;24.33;;;;;;;;;;5055529;28;20586;-89
2022/05/06 07:02:00;;;;;;;24.73;23.23;;;;;;;;;;5055010;28;20426;-88
2022/05/06 07:04:28;;;;;;;24.97;23.47;;;;;;;;;;5054652;28;20473;-87
2022/05/06 07:12:24;;;;;;;26.00;24.30;;;;;;;;;;5054636;28;20470;-89
2022/05/06 07:14:54;;;;;;;25.93;24.23;;;;;;;;;;5070576;28;20535;-90
2022/05/06 07:17:23;;;;;;;25.50;23.90;;;;;;;;;;5054586;28;20532;-89
2022/05/06 07:19:50;;;;;;;26.00;24.40;;;;;;;;;;5070550;28;20887;-89
2022/05/06 07:22:18;;;;;;;26.00;24.17;;;;;;;;;;5054528;28;20443;-89
2022/05/06 07:24:45;;;;;;;26.67;24.90;;;;;;;;;;5055081;28;20948;-89
2022/05/06 07:27:13;;;;;;;24.83;23.27;;;;;;;;;;5054845;28;20852;-89
2022/05/06 07:29:40;;;;;;;26.53;24.93;;;;;;;;;;5054540;28;20447;-89
2022/05/06 07:32:09;;;;;;;26.33;24.63;;;;;;;;;;5054402;28;20440;-88
2022/05/06 07:34:37;;;;;;;25.93;24.23;;;;;;;;;;5054361;28;20427;-88
2022/05/06 07:37:05;;;;;;;25.00;23.50;;;;;;;;;;5054155;28;20923;-92
2022/05/06 07:39:32;;;;;;;26.60;24.80;;;;;;;;;;5054599;28;20446;-88
2022/05/06 07:42:00;;;;;;;26.97;24.97;;;;;;;;;;5054201;28;20416;-88
2022/05/06 07:44:28;;;;;;;25.57;23.97;;;;;;;;;;5054389;28;20471;-85
2022/05/06 07:46:55;;;;;;;24.33;22.90;;;;;;;;;;5069185;28;20417;-86
2022/05/06 07:49:25;;;;;;;27.17;25.23;;;;;;;;;;5053968;28;20522;-86
2022/05/06 07:51:52;;;;;;;25.80;24.10;;;;;;;;;;5053976;28;20466;-86
2022/05/06 07:54:19;;;;;;;25.70;23.70;;;;;;;;;;5054005;28;20422;-85
2022/05/06 07:56:47;;;;;;;27.60;24.97;;;;;;;;;;5053651;28;21045;-87
2022/05/06 07:59:14;;;;;;;25.40;23.70;;;;;;;;;;5069571;28;20479;-89
2022/05/06 08:04:34;;;;;;;25.70;24.00;;;;;;;;;;5053744;28;20418;-90
2022/05/06 08:07:01;;;;;;;26.53;24.60;;;;;;;;;;5053963;28;20513;-91
2022/05/06 08:09:29;;;;;;;25.60;23.90;;;;;;;;;;5054016;28;20437;-91
2022/05/06 08:11:56;;;;;;;25.10;23.50;;;;;;;;;;5054244;28;20428;-90
2022/05/06 08:14:24;;;;;;;25.07;23.33;;;;;;;;;;5054148;28;20812;-90
2022/05/06 08:16:51;;;;;;;25.00;23.40;;;;;;;;;;5053861;28;20888;-90
2022/05/06 08:19:19;;;;;;;26.40;24.70;;;;;;;;;;5054365;28;21342;-91
2022/05/06 08:21:48;;;;;;;26.10;24.40;;;;;;;;;;5053969;28;20410;-91
2022/05/06 08:24:16;;;;;;;25.57;23.87;;;;;;;;;;5053843;28;20432;-91
2022/05/06 08:26:43;;;;;;;23.53;22.03;;;;;;;;;;5053752;28;20509;-91
2022/05/06 08:29:11;;;;;;;25.30;23.50;;;;;;;;;;5053140;28;20443;-90
2022/05/06 08:31:38;;;;;;;25.03;23.40;;;;;;;;;;5053902;28;20763;-92
2022/05/06 08:34:08;;;;;;;24.63;23.03;;;;;;;;;;5053457;28;20418;-89
2022/05/06 08:36:36;;;;;;;24.70;22.87;;;;;;;;;;5053788;28;20443;-92
2022/05/06 08:39:06;;;;;;;27.03;25.00;;;;;;;;;;5053670;28;20444;-91
2022/05/06 08:41:34;;;;;;;25.37;23.77;;;;;;;;;;5053896;28;20760;-91
2022/05/06 08:50:50;;;;;;;24.03;22.53;;;;;;;;;;5053651;28;20422;-92
2022/05/06 08:52:22;;;;;;;24.77;23.17;;;;;;;;;;5053361;28;20961;-91
2022/05/06 08:54:51;;;;;;;23.50;21.80;;;;;;;;;;5054009;28;20440;-92
2022/05/06 08:57:19;;;;;;;25.03;23.17;;;;;;;;;;5068794;28;21254;-91
2022/05/06 08:59:51;;;;;;;26.70;24.47;;;;;;;;;;5053335;28;21024;-91
2022/05/06 09:02:19;;;;;;;24.80;23.20;;;;;;;;;;5053487;28;20556;-91
2022/05/06 09:04:46;;;;;;;25.90;24.10;;;;;;;;;;5068975;28;20501;-90
2022/05/06 09:07:14;;;;;;;25.60;23.80;;;;;;;;;;5054097;28;20441;-91
2022/05/06 09:09:42;;;;;;;25.33;23.43;;;;;;;;;;5054098;28;20551;-91
2022/05/06 09:17:47;;;;;;;25.67;23.77;;;;;;;;;;5053496;28;20389;-93
2022/05/06 09:20:19;;;;;;;25.03;23.43;;;;;;;;;;5053276;28;20465;-94
2022/05/06 09:22:50;;;;;;;25.83;24.00;;;;;;;;;;5053117;28;20443;-92
2022/05/06 09:25:33;;;;;;;26.70;24.73;;;;;;;;;;5053330;28;20475;-94
2022/05/06 09:28:01;;;;;;;25.93;24.10;;;;;;;;;;5053204;28;20454;-93
2022/05/06 09:30:29;;;;;;;27.60;25.50;;;;;;;;;;5068975;28;20422;-94
2022/05/06 09:32:56;;;;;;;27.20;25.30;;;;;;;;;;5053008;28;20456;-92
2022/05/06 09:35:27;;;;;;;26.17;24.37;;;;;;;;;;5053090;28;20455;-92
2022/05/06 09:37:55;;;;;;;28.13;25.90;;;;;;;;;;5068788;28;20454;-92
2022/05/06 09:40:22;;;;;;;26.40;24.50;;;;;;;;;;5056142;28;20468;-92
2022/05/06 09:42:58;;;;;;;25.97;24.00;;;;;;;;;;5056778;28;20505;-91
2022/05/06 09:45:32;;;;;;;26.80;24.87;;;;;;;;;;5056419;28;20437;-91
2022/05/06 09:48:00;;;;;;;26.23;24.53;;;;;;;;;;5056035;28;20418;-92
2022/05/06 09:50:34;;;;;;;28.57;25.87;;;;;;;;;;5056831;28;20465;-91
2022/05/06 09:53:02;;;;;;;26.17;24.27;;;;;;;;;;5056863;28;20421;-91
2022/05/06 09:55:30;;;;;;;27.07;24.73;;;;;;;;;;5056567;28;20422;-93
2022/05/06 09:57:59;;;;;;;26.70;24.83;;;;;;;;;;5056374;28;20465;-91
2022/05/06 10:00:27;;;;;;;28.07;26.17;;;;;;;;;;5056338;28;20468;-89
2022/05/06 10:02:56;;;;;;;27.40;25.50;;;;;;;;;;5056048;28;20414;-89
2022/05/06 10:05:25;;;;;;;27.13;25.33;;;;;;;;;;5056186;28;20538;-91
2022/05/06 10:07:55;;;;;;;27.20;25.23;;;;;;;;;;5056247;28;20491;-90
2022/05/06 10:10:24;;;;;;;27.13;25.33;;;;;;;;;;5056138;28;20466;-89
2022/05/06 10:12:54;;;;;;;26.90;24.90;;;;;;;;;;5056006;28;20453;-88
2022/05/06 10:15:22;;;;;;;29.70;27.40;;;;;;;;;;5054583;28;20440;-88
2022/05/06 10:17:54;;;;;;;27.77;25.87;;;;;;;;;;5055961;28;20995;-87
2022/05/06 10:20:41;;;;;;;27.07;25.07;;;;;;;;;;5055519;28;20453;-87
2022/05/06 10:23:11;;;;;;;28.13;26.03;;;;;;;;;;5055781;28;20466;-89
2022/05/06 10:25:52;;;;;;;28.57;26.47;;;;;;;;;;5055873;28;20843;-88
2022/05/06 10:34:27;;;;;;;26.53;24.73;;;;;;;;;;5055552;28;20369;-88
2022/05/06 10:36:55;;;;;;;25.73;24.00;;;;;;;;;;5055428;28;20921;-88
2022/05/06 10:39:25;;;;;;;26.37;24.47;;;;;;;;;;5055316;28;20436;-84
2022/05/06 10:42:02;;;;;;;27.70;25.70;;;;;;;;;;5055406;28;20487;-90
2022/05/06 10:44:34;;;;;;;27.47;25.33;;;;;;;;;;5055537;28;20428;-90
2022/05/06 10:47:01;;;;;;;27.07;24.93;;;;;;;;;;5070875;28;20474;-90
2022/05/06 10:49:52;;;;;;;25.90;24.20;;;;;;;;;;5055484;28;20448;-89
2022/05/06 10:52:38;;;;;;;23.40;21.90;;;;;;;;;;5054787;28;20410;-89
2022/05/06 10:55:10;;;;;;;26.37;24.60;;;;;;;;;;5055579;28;20467;-90
2022/05/06 10:57:46;;;;;;;28.07;25.70;;;;;;;;;;5055130;28;20553;-90
2022/05/06 11:00:14;;;;;;;27.20;25.10;;;;;;;;;;5055163;28;20510;-91
2022/05/06 11:02:41;;;;;;;27.10;25.20;;;;;;;;;;5054982;28;20418;-91
2022/05/06 11:05:09;;;;;;;25.60;23.90;;;;;;;;;;5054991;28;20476;-91
2022/05/06 11:07:37;;;;;;;27.00;25.10;;;;;;;;;;5054948;28;20463;-88
2022/05/06 11:10:11;;;;;;;25.63;23.80;;;;;;;;;;5055523;28;20824;-90
2022/05/06 11:12:40;;;;;;;26.70;24.70;;;;;;;;;;5055166;28;20492;-90
2022/05/06 11:15:08;;;;;;;27.13;25.23;;;;;;;;;;5054669;28;20484;-88
2022/05/06 11:17:36;;;;;;;26.97;25.07;;;;;;;;;;5054698;28;20417;-91
2022/05/06 11:20:05;;;;;;;26.50;24.70;;;;;;;;;;5037144;28;20446;-91
2022/05/06 11:22:33;;;;;;;23.70;22.20;;;;;;;;;;5054679;28;20443;-90
2022/05/06 11:25:01;;;;;;;27.43;25.43;;;;;;;;;;5054341;28;20450;-90
2022/05/06 11:27:30;;;;;;;26.87;25.03;;;;;;;;;;5070595;28;20517;-91
2022/05/06 11:29:58;;;;;;;26.27;24.60;;;;;;;;;;5055074;28;20954;-88
2022/05/06 11:32:26;;;;;;;25.77;24.07;;;;;;;;;;5053867;28;20413;-87
2022/05/06 11:34:56;;;;;;;25.53;23.83;;;;;;;;;;5069429;28;20941;-92
2022/05/06 11:37:23;;;;;;;27.13;25.37;;;;;;;;;;5055476;28;20432;-95
2022/05/06 11:39:51;;;;;;;25.97;24.27;;;;;;;;;;5054450;28;20780;-93
2022/05/06 11:42:22;;;;;;;25.10;23.57;;;;;;;;;;5055403;28;20457;-95
2022/05/06 11:47:45;;;;;;;24.20;22.67;;;;;;;;;;5054813;28;20434;-92
2022/05/06 11:50:13;;;;;;;25.70;23.93;;;;;;;;;;5054709;28;20956;-84
2022/05/06 11:52:40;;;;;;;26.50;24.70;;;;;;;;;;5053120;28;20491;-86
2022/05/06 11:55:08;;;;;;;26.67;24.70;;;;;;;;;;5054025;28;20439;-88
2022/05/06 11:57:36;;;;;;;26.40;24.70;;;;;;;;;;5053701;28;20482;-89
2022/05/06 12:00:06;;;;;;;27.20;25.30;;;;;;;;;;5054013;28;20422;-89
2022/05/06 12:02:34;;;;;;;27.07;25.37;;;;;;;;;;5052679;28;20430;-89
2022/05/06 12:05:01;;;;;;;25.93;24.23;;;;;;;;;;5053833;28;20406;-89
2022/05/06 12:07:44;;;;;;;27.40;25.60;;;;;;;;;;5053515;28;20425;-88
2022/05/06 12:10:12;;;;;;;25.83;24.23;;;;;;;;;;5053910;28;20434;-89
2022/05/06 12:12:56;;;;;;;26.37;24.47;;;;;;;;;;5053923;28;20484;-89
2022/05/06 12:15:31;;;;;;;26.87;25.13;;;;;;;;;;5053502;28;20906;-88
2022/05/06 12:18:05;;;;;;;27.00;24.97;;;;;;;;;;5053744;28;20522;-89
2022/05/06 12:20:36;;;;;;;26.77;25.00;;;;;;;;;;5053775;28;20461;-88
2022/05/06 12:23:04;;;;;;;26.17;24.47;;;;;;;;;;5053743;28;20472;-89
2022/05/06 12:25:31;;;;;;;27.00;25.40;;;;;;;;;;5053681;28;20462;-89
2022/05/06 12:28:06;;;;;;;27.10;25.40;;;;;;;;;;5053789;28;20434;-89
2022/05/06 12:30:36;;;;;;;26.97;25.37;;;;;;;;;;5053915;28;20420;-88
2022/05/06 12:33:07;;;;;;;25.80;24.20;;;;;;;;;;5053943;28;20418;-89
2022/05/06 12:35:50;;;;;;;26.63;24.93;;;;;;;;;;5053984;28;20430;-88
2022/05/06 12:38:17;;;;;;;25.70;24.10;;;;;;;;;;5053289;28;20470;-89
2022/05/06 12:40:44;;;;;;;23.73;22.33;;;;;;;;;;5053837;28;20453;-89
2022/05/06 12:43:12;;;;;;;24.77;23.17;;;;;;;;;;5053568;28;20417;-88
2022/05/06 12:45:52;;;;;;;24.20;22.70;;;;;;;;;;5053397;28;20975;-89
2022/05/06 12:51:04;;;;;;;24.60;23.10;;;;;;;;;;5053532;28;20938;-89
2022/05/06 12:53:33;;;;;;;23.20;21.70;;;;;;;;;;5053525;28;20465;-89
2022/05/06 12:56:01;;;;;;;25.03;23.43;;;;;;;;;;5068619;28;20874;-88
2022/05/06 12:58:28;;;;;;;25.00;23.40;;;;;;;;;;5053682;28;20909;-89
2022/05/06 13:00:58;;;;;;;25.83;23.93;;;;;;;;;;5053233;28;20481;-88
2022/05/06 13:03:25;;;;;;;25.00;23.30;;;;;;;;;;5053501;28;20477;-88
2022/05/06 13:05:54;;;;;;;24.17;22.67;;;;;;;;;;5053745;28;20458;-88
2022/05/06 13:08:22;;;;;;;24.97;23.17;;;;;;;;;;5053521;28;20533;-89
2022/05/06 13:10:49;;;;;;;32.97;30.43;;;;;;;;;;5053084;28;21038;-89
2022/05/06 13:13:16;;;;;;;24.77;23.17;;;;;;;;;;5053346;28;20453;-89
2022/05/06 13:15:44;;;;;;;24.70;23.17;;;;;;;;;;5056930;28;20439;-89
2022/05/06 13:18:12;;;;;;;25.90;24.10;;;;;;;;;;5057277;28;20978;-88
2022/05/06 13:20:40;;;;;;;26.03;24.13;;;;;;;;;;5057250;28;20439;-89
2022/05/06 13:23:07;;;;;;;25.93;24.23;;;;;;;;;;5056969;28;20975;-89
2022/05/06 13:25:36;;;;;;;26.70;25.10;;;;;;;;;;5057495;28;20509;-91
2022/05/06 13:28:04;;;;;;;25.30;23.80;;;;;;;;;;5056797;28;20471;-91
2022/05/06 13:30:31;;;;;;;26.80;25.10;;;;;;;;;;5056739;28;20971;-91
2022/05/06 13:32:58;;;;;;;26.47;24.77;;;;;;;;;;5056809;28;20418;-91
2022/05/06 13:35:28;;;;;;;26.27;24.77;;;;;;;;;;5056968;28;20413;-89
2022/05/06 13:37:55;;;;;;;26.43;24.73;;;;;;;;;;5056708;28;20429;-89
2022/05/06 13:40:23;;;;;;;26.00;24.30;;;;;;;;;;5056682;28;20435;-89
2022/05/06 13:42:50;;;;;;;25.60;23.90;;;;;;;;;;5056746;28;20457;-89
2022/05/06 13:45:18;;;;;;;25.77;24.17;;;;;;;;;;5057017;28;20438;-89
2022/05/06 13:47:45;;;;;;;26.70;24.90;;;;;;;;;;5056492;28;20463;-89
2022/05/06 13:50:13;;;;;;;28.43;26.63;;;;;;;;;;5056600;28;20455;-89
2022/05/06 13:52:42;;;;;;;27.43;25.77;;;;;;;;;;5056652;28;20455;-88
2022/05/06 13:55:10;;;;;;;26.80;25.20;;;;;;;;;;5056591;28;20439;-89
2022/05/06 14:00:23;;;;;;;26.90;25.20;;;;;;;;;;5056287;28;20444;-89
2022/05/06 14:02:52;;;;;;;26.10;24.50;;;;;;;;;;5056010;28;20464;-89
2022/05/06 14:05:19;;;;;;;25.70;24.00;;;;;;;;;;5056482;28;20509;-89
2022/05/06 14:07:48;;;;;;;26.80;25.07;;;;;;;;;;5056296;28;20964;-89
2022/05/06 14:10:16;;;;;;;27.10;25.40;;;;;;;;;;5071597;28;20464;-89
2022/05/06 14:12:44;;;;;;;27.93;26.07;;;;;;;;;;5056209;28;20479;-88
2022/05/06 14:15:12;;;;;;;27.50;25.63;;;;;;;;;;5056362;28;20459;-89
2022/05/06 14:17:40;;;;;;;27.40;25.57;;;;;;;;;;5056301;28;20444;-88
2022/05/06 14:20:07;;;;;;;27.70;26.00;;;;;;;;;;5056540;28;20410;-89
2022/05/06 14:22:35;;;;;;;27.67;25.60;;;;;;;;;;5056515;28;20518;-89
2022/05/06 14:25:04;;;;;;;28.83;26.93;;;;;;;;;;5055392;28;20448;-89
2022/05/06 14:27:31;;;;;;;27.40;25.60;;;;;;;;;;5055564;28;20444;-88
2022/05/06 14:29:58;;;;;;;28.13;26.23;;;;;;;;;;5056089;28;20912;-89
2022/05/06 14:32:27;;;;;;;28.13;26.33;;;;;;;;;;5055876;28;20788;-89
2022/05/06 14:35:16;;;;;;;28.60;26.70;;;;;;;;;;5055897;28;21028;-88
2022/05/06 14:37:43;;;;;;;28.50;26.70;;;;;;;;;;5055324;28;20860;-89
2022/05/06 14:40:13;;;;;;;27.37;25.47;;;;;;;;;;5056123;28;20402;-89
2022/05/06 14:42:40;;;;;;;27.47;25.40;;;;;;;;;;5055584;28;20464;-89
2022/05/06 14:45:09;;;;;;;27.70;25.70;;;;;;;;;;5055591;28;20414;-88
2022/05/06 14:47:36;;;;;;;27.47;25.57;;;;;;;;;;5070958;28;20429;-89
2022/05/06 14:50:04;;;;;;;28.40;26.50;;;;;;;;;;5055373;28;20439;-89
2022/05/06 14:52:31;;;;;;;28.23;26.53;;;;;;;;;;5055370;28;20468;-89
2022/05/06 14:55:00;;;;;;;29.33;27.43;;;;;;;;;;5055505;28;20497;-89
2022/05/06 14:57:28;;;;;;;27.83;26.03;;;;;;;;;;5055363;28;20522;-90
2022/05/06 14:59:56;;;;;;;30.17;28.07;;;;;;;;;;5055452;28;20439;-89
2022/05/06 15:02:23;;;;;;;30.60;28.40;;;;;;;;;;5054958;28;20453;-89
2022/05/06 15:04:51;;;;;;;29.43;27.33;;;;;;;;;;5055191;28;20422;-88
2022/05/06 15:07:18;;;;;;;27.67;25.87;;;;;;;;;;5055441;28;20452;-89
2022/05/06 15:09:46;;;;;;;29.57;27.37;;;;;;;;;;5054440;28;20440;-89
2022/05/06 15:12:15;;;;;;;30.93;28.83;;;;;;;;;;5054802;28;20441;-89
2022/05/06 15:14:44;;;;;;;30.10;28.10;;;;;;;;;;5054619;28;20415;-89